createdAt,value
2022-12-26T00:00:25.309Z,129.30
2022-12-26T00:02:51.941Z,43.97
2022-12-26T00:05:18.590Z,59.70
2022-12-26T00:07:45.735Z,76.33
2022-12-26T00:10:12.362Z,126.03
2022-12-26T00:12:38.932Z,88.43
2022-12-26T00:15:05.797Z,93.83
2022-12-26T00:17:32.315Z,124.70
2022-12-26T00:19:59.005Z,110.70
2022-12-26T00:22:25.538Z,122.67
2022-12-26T00:24:52.068Z,106.93
2022-12-26T00:27:18.576Z,167.97
2022-12-26T00:29:47.806Z,61.73
2022-12-26T00:32:14.304Z,76.67
2022-12-26T00:34:40.836Z,138.17
2022-12-26T00:37:07.532Z,94.47
2022-12-26T00:39:34.061Z,143.33
2022-12-26T00:42:00.608Z,221.83
2022-12-26T00:44:27.385Z,150.97
2022-12-26T00:46:54.154Z,211.37
2022-12-26T00:49:20.704Z,143.57
2022-12-26T00:51:47.486Z,162.73
2022-12-26T00:54:14.027Z,133.43
2022-12-26T00:56:40.552Z,145.73
2022-12-26T00:59:07.117Z,161.17
2022-12-26T01:01:34.031Z,162.00
2022-12-26T01:04:01.048Z,161.67
2022-12-26T01:06:27.632Z,151.60
2022-12-26T01:08:54.381Z,150.87
2022-12-26T01:11:40.162Z,154.50
2022-12-26T01:14:16.752Z,145.70
2022-12-26T01:16:45.615Z,193.27
2022-12-26T01:19:13.157Z,221.07
2022-12-26T01:21:39.849Z,158.87
2022-12-26T01:24:07.491Z,181.70
2022-12-26T01:26:34.932Z,152.63
2022-12-26T01:29:01.564Z,207.70
2022-12-26T01:31:28.553Z,179.03
2022-12-26T01:33:55.124Z,190.87
2022-12-26T01:36:21.658Z,181.47
2022-12-26T01:38:48.262Z,243.53
2022-12-26T01:41:19.337Z,216.20
2022-12-26T01:43:52.255Z,175.87
2022-12-26T01:46:24.048Z,186.73
2022-12-26T01:48:51.458Z,102.03
2022-12-26T01:51:21.955Z,194.57
2022-12-26T01:53:54.215Z,140.90
2022-12-26T01:56:29.452Z,129.13
2022-12-26T01:59:07.121Z,137.20
2022-12-26T02:01:37.553Z,137.37
2022-12-26T02:04:27.725Z,91.87
2022-12-26T02:06:54.937Z,87.23
2022-12-26T02:09:21.767Z,74.77
2022-12-26T02:12:33.960Z,154.13
2022-12-26T02:14:43.680Z,55.27
2022-12-26T02:17:11.213Z,84.87
2022-12-26T02:19:45.091Z,91.43
2022-12-26T02:22:37.861Z,75.67
2022-12-26T02:25:23.228Z,48.53
2022-12-26T02:28:20.045Z,54.73
2022-12-26T02:30:58.825Z,53.03
2022-12-26T02:33:44.167Z,54.07
2022-12-26T02:36:44.977Z,57.73
2022-12-26T02:39:46.689Z,43.03
2022-12-26T02:42:36.240Z,27.80
2022-12-26T02:45:35.416Z,34.87
2022-12-26T02:48:17.209Z,38.77
2022-12-26T02:51:15.163Z,33.13
2022-12-26T02:54:12.001Z,20.10
2022-12-26T02:57:02.045Z,19.77
2022-12-26T02:59:57.421Z,27.93
2022-12-26T03:02:45.618Z,19.23
2022-12-26T03:05:43.510Z,21.40
2022-12-26T03:08:32.323Z,18.90
2022-12-26T03:11:17.666Z,18.90
2022-12-26T03:13:45.633Z,21.70
2022-12-26T03:16:33.272Z,19.00
2022-12-26T03:19:06.042Z,14.90
2022-12-26T03:21:40.496Z,16.80
2022-12-26T03:24:12.233Z,19.27
2022-12-26T03:26:47.550Z,32.57
2022-12-26T03:29:36.305Z,18.53
2022-12-26T03:32:06.223Z,29.77
2022-12-26T03:34:35.050Z,30.27
2022-12-26T03:37:08.021Z,34.50
2022-12-26T03:40:35.424Z,37.43
2022-12-26T03:43:36.037Z,35.90
2022-12-26T03:46:36.301Z,29.00
2022-12-26T03:49:48.528Z,39.97
2022-12-26T03:52:44.893Z,39.57
2022-12-26T03:55:54.626Z,48.03
2022-12-26T03:58:57.185Z,50.80
2022-12-26T04:01:48.456Z,43.57
2022-12-26T04:04:35.580Z,45.90
2022-12-26T04:07:33.535Z,32.17
2022-12-26T04:10:28.066Z,26.40
2022-12-26T04:13:15.085Z,25.83
2022-12-26T04:16:14.701Z,21.30
2022-12-26T04:19:18.093Z,22.33
2022-12-26T04:22:41.683Z,17.20
2022-12-26T04:25:50.689Z,21.17
2022-12-26T04:28:39.885Z,25.40
2022-12-26T04:31:36.012Z,18.93
2022-12-26T04:34:27.603Z,19.53
2022-12-26T04:37:20.108Z,18.47
2022-12-26T04:40:09.325Z,18.50
2022-12-26T04:42:56.851Z,20.93
2022-12-26T04:45:24.151Z,19.40
2022-12-26T04:48:10.262Z,16.07
2022-12-26T04:50:36.829Z,19.20
2022-12-26T04:53:03.863Z,17.90
2022-12-26T04:55:32.951Z,22.27
2022-12-26T04:57:59.594Z,18.70
2022-12-26T05:00:28.195Z,18.67
2022-12-26T05:03:29.203Z,19.20
2022-12-26T05:06:14.217Z,19.67
2022-12-26T05:09:02.554Z,22.43
2022-12-26T05:11:31.272Z,18.80
2022-12-26T05:13:58.940Z,28.03
2022-12-26T05:16:46.380Z,21.10
2022-12-26T05:19:35.841Z,20.00
2022-12-26T05:22:23.167Z,22.57
2022-12-26T05:25:09.142Z,19.77
2022-12-26T05:27:58.436Z,22.90
2022-12-26T05:30:25.881Z,21.43
2022-12-26T05:33:11.216Z,24.20
2022-12-26T05:35:38.956Z,22.40
2022-12-26T05:38:06.238Z,21.93
2022-12-26T05:40:32.802Z,20.13
2022-12-26T05:43:00.216Z,20.57
2022-12-26T05:45:27.226Z,21.10
2022-12-26T05:48:03.386Z,22.90
2022-12-26T05:50:29.992Z,20.17
2022-12-26T05:52:58.023Z,21.57
2022-12-26T05:55:25.792Z,22.40
2022-12-26T05:57:52.338Z,19.53
2022-12-26T06:00:19.484Z,21.07
2022-12-26T06:02:46.407Z,22.10
2022-12-26T06:05:13.109Z,21.20
2022-12-26T06:07:39.600Z,20.30
2022-12-26T06:10:06.835Z,17.83
2022-12-26T06:12:34.635Z,19.73
2022-12-26T06:15:02.586Z,25.83
2022-12-26T06:17:29.259Z,19.43
2022-12-26T06:19:56.726Z,18.80
2022-12-26T06:22:23.673Z,19.57
2022-12-26T06:24:50.627Z,17.03
2022-12-26T06:27:17.168Z,18.17
2022-12-26T06:29:43.681Z,20.53
2022-12-26T06:32:10.215Z,15.27
2022-12-26T06:34:36.752Z,18.60
2022-12-26T06:37:03.306Z,15.87
2022-12-26T06:39:30.215Z,15.00
2022-12-26T06:41:56.953Z,19.40
2022-12-26T06:44:23.467Z,20.30
2022-12-26T06:46:51.489Z,16.83
2022-12-26T06:49:18.464Z,16.10
2022-12-26T06:51:45.065Z,15.83
2022-12-26T06:54:11.634Z,15.20
2022-12-26T06:56:38.425Z,16.30
2022-12-26T06:59:07.238Z,18.33
2022-12-26T07:01:35.190Z,20.93
2022-12-26T07:04:02.293Z,16.90
2022-12-26T07:06:37.273Z,15.67
2022-12-26T07:09:11.234Z,17.60
2022-12-26T07:11:40.149Z,17.50
2022-12-26T07:14:08.422Z,15.53
2022-12-26T07:16:36.628Z,14.23
2022-12-26T07:19:03.631Z,16.40
2022-12-26T07:21:34.837Z,16.23
2022-12-26T07:24:04.963Z,18.27
2022-12-26T07:26:31.500Z,16.97
2022-12-26T07:28:59.544Z,16.50
2022-12-26T07:31:28.218Z,16.17
2022-12-26T07:33:57.075Z,15.40
2022-12-26T07:36:25.215Z,18.27
2022-12-26T07:38:52.105Z,17.70
2022-12-26T07:41:37.233Z,16.13
2022-12-26T07:44:06.072Z,15.63
2022-12-26T07:46:33.219Z,18.23
2022-12-26T07:49:00.100Z,18.70
2022-12-26T07:51:27.129Z,15.83
2022-12-26T07:53:53.683Z,18.20
2022-12-26T07:56:20.395Z,17.77
2022-12-26T07:58:50.944Z,16.50
2022-12-26T08:01:18.502Z,17.33
2022-12-26T08:03:49.439Z,16.67
2022-12-26T08:06:17.411Z,18.00
2022-12-26T08:08:50.413Z,17.60
2022-12-26T08:11:20.674Z,15.63
2022-12-26T08:13:47.977Z,14.57
2022-12-26T08:16:15.621Z,13.90
2022-12-26T08:18:42.957Z,16.17
2022-12-26T08:21:10.772Z,15.20
2022-12-26T08:23:38.042Z,13.20
2022-12-26T08:26:10.228Z,15.63
2022-12-26T08:28:37.159Z,13.30
2022-12-26T08:31:08.211Z,14.50
2022-12-26T08:33:36.331Z,13.30
2022-12-26T08:36:09.354Z,18.37
2022-12-26T08:38:38.777Z,14.70
2022-12-26T08:41:06.172Z,17.70
2022-12-26T08:43:58.431Z,13.27
2022-12-26T08:46:21.311Z,21.77
2022-12-26T08:48:51.822Z,18.03
2022-12-26T08:51:21.907Z,14.33
2022-12-26T08:53:49.647Z,15.43
2022-12-26T08:56:20.802Z,16.10
2022-12-26T08:58:48.345Z,14.33
2022-12-26T09:01:24.268Z,14.13
2022-12-26T09:04:00.548Z,16.43
2022-12-26T09:06:29.122Z,13.50
2022-12-26T09:08:55.730Z,15.53
2022-12-26T09:11:28.917Z,15.60
2022-12-26T09:13:58.153Z,14.10
2022-12-26T09:16:31.515Z,15.57
2022-12-26T09:19:01.438Z,16.37
2022-12-26T09:21:29.897Z,14.73
2022-12-26T09:24:01.685Z,13.80
2022-12-26T09:26:29.205Z,14.00
2022-12-26T09:28:55.867Z,16.47
2022-12-26T09:31:25.073Z,15.50
2022-12-26T09:33:53.704Z,14.60
2022-12-26T09:36:26.351Z,13.93
2022-12-26T09:38:54.979Z,15.20
2022-12-26T09:41:58.492Z,12.10
2022-12-26T09:44:28.096Z,16.33
2022-12-26T09:47:17.899Z,14.07
2022-12-26T09:49:59.133Z,13.00
2022-12-26T09:52:49.758Z,14.73
2022-12-26T09:55:46.803Z,15.33
2022-12-26T09:58:33.472Z,13.50
2022-12-26T10:01:30.003Z,13.53
2022-12-26T10:03:58.434Z,13.43
2022-12-26T10:06:37.322Z,12.57
2022-12-26T10:09:27.475Z,19.70
2022-12-26T10:12:06.288Z,13.47
2022-12-26T10:14:38.816Z,10.43
2022-12-26T10:17:26.531Z,14.30
2022-12-26T10:20:02.278Z,12.67
2022-12-26T10:22:55.903Z,10.63
2022-12-26T10:25:38.645Z,10.37
2022-12-26T10:28:10.806Z,9.87
2022-12-26T10:30:41.829Z,10.80
2022-12-26T10:33:22.467Z,12.10
2022-12-26T10:35:49.319Z,8.77
2022-12-26T10:38:32.516Z,8.77
2022-12-26T10:41:08.165Z,9.70
2022-12-26T10:43:35.412Z,9.07
2022-12-26T10:46:30.233Z,8.80
2022-12-26T10:48:57.090Z,9.00
2022-12-26T10:51:25.186Z,8.63
2022-12-26T10:53:53.955Z,8.13
2022-12-26T10:56:22.142Z,6.73
2022-12-26T10:58:59.920Z,8.93
2022-12-26T11:01:38.195Z,5.97
2022-12-26T11:04:18.894Z,11.37
2022-12-26T11:06:52.426Z,7.80
2022-12-26T11:09:40.103Z,6.13
2022-12-26T11:12:22.832Z,9.53
2022-12-26T11:14:56.849Z,6.87
2022-12-26T11:17:33.425Z,4.70
2022-12-26T11:20:16.103Z,5.07
2022-12-26T11:22:44.113Z,5.30
2022-12-26T11:25:10.780Z,4.03
2022-12-26T11:27:42.236Z,3.87
2022-12-26T11:30:14.989Z,4.03
2022-12-26T11:32:47.273Z,4.10
2022-12-26T11:35:26.987Z,5.43
2022-12-26T11:37:56.846Z,3.57
2022-12-26T11:40:38.509Z,3.73
2022-12-26T11:43:15.114Z,4.30
2022-12-26T11:45:48.813Z,4.10
2022-12-26T11:48:24.834Z,8.73
2022-12-26T11:50:52.195Z,6.93
2022-12-26T11:53:21.972Z,7.83
2022-12-26T11:56:06.073Z,4.93
2022-12-26T11:58:36.001Z,4.60
2022-12-26T12:01:06.413Z,10.57
2022-12-26T12:03:49.696Z,2.50
2022-12-26T12:06:37.158Z,3.13
2022-12-26T12:09:06.589Z,3.73
2022-12-26T12:12:00.667Z,3.77
2022-12-26T12:14:52.476Z,2.30
2022-12-26T12:17:32.536Z,5.40
2022-12-26T12:20:06.829Z,4.43
2022-12-26T12:22:45.346Z,6.20
2022-12-26T12:25:30.913Z,6.33
2022-12-26T12:28:10.241Z,2.97
2022-12-26T12:30:45.603Z,2.70
2022-12-26T12:33:35.899Z,3.03
2022-12-26T12:36:11.716Z,3.50
2022-12-26T12:38:58.373Z,5.90
2022-12-26T12:41:43.441Z,6.37
2022-12-26T12:44:21.397Z,3.73
2022-12-26T12:47:11.753Z,3.17
2022-12-26T12:50:23.506Z,3.17
2022-12-26T12:53:27.049Z,3.27
2022-12-26T12:56:23.731Z,2.70
2022-12-26T12:59:05.431Z,7.00
2022-12-26T13:01:39.762Z,4.00
2022-12-26T13:04:15.835Z,3.30
2022-12-26T13:06:53.016Z,2.70
2022-12-26T13:09:29.116Z,2.80
2022-12-26T13:12:02.392Z,3.00
2022-12-26T13:14:44.178Z,3.00
2022-12-26T13:17:53.355Z,4.00
2022-12-26T13:20:34.328Z,4.43
2022-12-26T13:23:25.102Z,4.97
2022-12-26T13:26:10.098Z,3.67
2022-12-26T13:28:48.811Z,4.67
2022-12-26T13:31:15.606Z,3.17
2022-12-26T13:33:44.115Z,3.70
2022-12-26T13:36:47.856Z,2.80
2022-12-26T13:39:27.723Z,4.00
2022-12-26T13:42:35.596Z,5.07
2022-12-26T13:45:47.521Z,4.30
2022-12-26T13:48:17.170Z,2.13
2022-12-26T13:51:01.374Z,0.97
2022-12-26T13:53:33.349Z,2.40
2022-12-26T13:56:02.734Z,1.60
2022-12-26T13:58:32.020Z,2.50
2022-12-26T14:01:05.111Z,3.87
2022-12-26T14:03:48.244Z,2.20
2022-12-26T14:06:35.642Z,0.50
2022-12-26T14:09:16.884Z,0.70
2022-12-26T14:12:00.042Z,1.17
2022-12-26T14:15:05.617Z,1.60
2022-12-26T14:17:51.865Z,1.70
2022-12-26T14:20:39.478Z,2.00
2022-12-26T14:23:45.621Z,5.87
2022-12-26T14:26:31.172Z,0.93
2022-12-26T14:29:17.407Z,5.80
2022-12-26T14:31:58.457Z,5.73
2022-12-26T14:34:42.604Z,2.50
2022-12-26T14:37:41.168Z,1.00
2022-12-26T14:40:57.949Z,1.20
2022-12-26T14:43:39.669Z,3.97
2022-12-26T14:46:31.589Z,1.33
2022-12-26T14:49:17.773Z,0.57
2022-12-26T14:51:45.033Z,2.33
2022-12-26T14:54:22.124Z,1.60
2022-12-26T14:56:50.629Z,0.97
2022-12-26T14:59:29.655Z,0.80
2022-12-26T15:02:11.366Z,1.53
2022-12-26T15:05:08.305Z,2.40
2022-12-26T15:08:07.504Z,2.50
2022-12-26T15:10:58.372Z,2.93
2022-12-26T15:13:57.471Z,4.77
2022-12-26T15:16:42.290Z,3.67
2022-12-26T15:20:06.162Z,0.50
2022-12-26T15:23:12.659Z,2.40
2022-12-26T15:26:09.468Z,3.73
2022-12-26T15:29:14.539Z,3.03
2022-12-26T15:31:50.902Z,9.10
2022-12-26T15:34:36.629Z,2.87
2022-12-26T15:37:38.047Z,2.97
2022-12-26T15:40:22.631Z,3.80
2022-12-26T15:43:35.373Z,3.03
2022-12-26T15:46:20.875Z,5.27
2022-12-26T15:49:06.676Z,3.27
2022-12-26T15:51:56.278Z,6.77
2022-12-26T15:55:00.354Z,1.40
2022-12-26T15:57:54.373Z,7.93
2022-12-26T16:00:23.955Z,2.67
2022-12-26T16:03:12.886Z,7.60
2022-12-26T16:05:52.556Z,5.60
2022-12-26T16:08:36.113Z,7.30
2022-12-26T16:11:22.936Z,1.70
2022-12-26T16:13:59.252Z,8.20
2022-12-26T16:16:37.730Z,16.57
2022-12-26T16:19:22.963Z,14.53
2022-12-26T16:22:20.257Z,7.40
2022-12-26T16:24:51.307Z,17.90
2022-12-26T16:27:21.961Z,12.97
2022-12-26T16:29:52.873Z,16.97
2022-12-26T16:32:21.999Z,30.80
2022-12-26T16:34:49.453Z,15.27
2022-12-26T16:37:23.481Z,9.87
2022-12-26T16:40:17.723Z,12.30
2022-12-26T16:42:56.076Z,31.93
2022-12-26T16:45:23.482Z,7.00
2022-12-26T16:47:50.668Z,12.53
2022-12-26T16:50:21.736Z,10.03
2022-12-26T16:52:49.594Z,8.43
2022-12-26T16:55:35.783Z,8.27
2022-12-26T16:58:12.948Z,8.83
2022-12-26T17:00:40.125Z,4.80
2022-12-26T17:03:17.818Z,5.57
2022-12-26T17:05:46.954Z,9.50
2022-12-26T17:08:15.501Z,7.17
2022-12-26T17:10:48.735Z,8.30
2022-12-26T17:13:20.948Z,9.57
2022-12-26T17:16:01.863Z,15.63
2022-12-26T17:18:41.795Z,13.37
2022-12-26T17:21:23.793Z,7.77
2022-12-26T17:24:02.376Z,17.87
2022-12-26T17:26:30.529Z,14.50
2022-12-26T17:28:57.336Z,12.20
2022-12-26T17:31:44.431Z,7.20
2022-12-26T17:34:26.175Z,8.47
2022-12-26T17:39:41.441Z,10.27
2022-12-26T17:42:08.021Z,8.90
2022-12-26T17:44:38.741Z,10.33
2022-12-26T17:47:27.039Z,6.90
2022-12-26T17:49:54.823Z,14.10
2022-12-26T17:52:25.073Z,11.23
2022-12-26T17:54:53.163Z,8.27
2022-12-26T17:57:23.939Z,3.03
2022-12-26T17:59:52.458Z,9.60
2022-12-26T18:02:20.585Z,9.80
2022-12-26T18:04:47.670Z,15.63
2022-12-26T18:07:18.170Z,8.83
2022-12-26T18:09:45.500Z,10.83
2022-12-26T18:12:13.985Z,16.20
2022-12-26T18:14:40.694Z,12.63
2022-12-26T18:17:08.586Z,11.63
2022-12-26T18:19:36.610Z,6.20
2022-12-26T18:22:03.291Z,10.53
2022-12-26T18:24:31.032Z,6.73
2022-12-26T18:26:57.837Z,9.50
2022-12-26T18:29:24.751Z,10.37
2022-12-26T18:31:51.332Z,17.33
2022-12-26T18:34:18.266Z,7.80
2022-12-26T18:36:45.382Z,16.80
2022-12-26T18:39:15.189Z,14.20
2022-12-26T18:41:42.372Z,11.93
2022-12-26T18:44:09.368Z,13.17
2022-12-26T18:46:36.459Z,14.87
2022-12-26T18:49:03.366Z,13.47
2022-12-26T18:51:29.982Z,23.23
2022-12-26T18:53:56.944Z,7.30
2022-12-26T18:56:23.547Z,5.87
2022-12-26T18:58:57.410Z,5.97
2022-12-26T19:01:25.285Z,16.63
2022-12-26T19:03:53.650Z,5.63
2022-12-26T19:06:25.558Z,18.20
2022-12-26T19:08:52.396Z,11.60
2022-12-26T19:11:19.288Z,14.73
2022-12-26T19:13:45.901Z,3.10
2022-12-26T19:16:12.763Z,10.83
2022-12-26T19:18:39.582Z,4.73
2022-12-26T19:21:11.416Z,8.10
2022-12-26T19:23:37.996Z,12.80
2022-12-26T19:26:15.792Z,16.30
2022-12-26T19:28:42.348Z,9.57
2022-12-26T19:31:11.212Z,9.43
2022-12-26T19:33:38.211Z,14.67
2022-12-26T19:36:06.384Z,7.10
2022-12-26T19:38:33.055Z,14.70
2022-12-26T19:41:08.289Z,7.57
2022-12-26T19:43:35.023Z,9.70
2022-12-26T19:46:04.889Z,8.50
2022-12-26T19:48:33.157Z,11.67
2022-12-26T19:51:05.068Z,6.73
2022-12-26T19:53:32.877Z,14.23
2022-12-26T19:55:59.797Z,6.40
2022-12-26T19:58:29.790Z,12.83
2022-12-26T20:01:05.724Z,9.83
2022-12-26T20:03:32.592Z,8.70
2022-12-26T20:06:00.701Z,10.90
2022-12-26T20:08:27.244Z,7.30
2022-12-26T20:11:00.519Z,16.50
2022-12-26T20:13:27.342Z,16.50
2022-12-26T20:15:53.859Z,5.13
2022-12-26T20:18:20.370Z,7.77
2022-12-26T20:20:54.622Z,9.67
2022-12-26T20:23:21.217Z,14.53
2022-12-26T20:25:47.776Z,18.63
2022-12-26T20:28:14.420Z,9.70
2022-12-26T20:30:41.001Z,17.23
2022-12-26T20:33:07.653Z,6.10
2022-12-26T20:35:34.441Z,3.67
2022-12-26T20:38:01.025Z,11.23
2022-12-26T20:40:27.984Z,13.07
2022-12-26T20:42:54.504Z,7.00
2022-12-26T20:45:20.999Z,5.73
2022-12-26T20:47:47.516Z,8.77
2022-12-26T20:50:16.763Z,11.33
2022-12-26T20:52:43.300Z,9.93
2022-12-26T20:55:10.104Z,12.60
2022-12-26T20:57:36.655Z,12.73
2022-12-26T21:00:03.860Z,11.50
2022-12-26T21:02:30.942Z,10.80
2022-12-26T21:04:59.964Z,11.50
2022-12-26T21:07:26.716Z,9.73
2022-12-26T21:09:53.777Z,10.83
2022-12-26T21:12:20.325Z,12.20
2022-12-26T21:14:46.857Z,5.60
2022-12-26T21:17:17.889Z,14.03
2022-12-26T21:19:45.387Z,15.60
2022-12-26T21:22:11.894Z,9.80
2022-12-26T21:24:38.400Z,9.23
2022-12-26T21:27:05.545Z,12.77
2022-12-26T21:29:33.762Z,18.23
2022-12-26T21:32:02.525Z,12.70
2022-12-26T21:34:31.698Z,6.40
2022-12-26T21:37:18.054Z,7.40
2022-12-26T21:39:45.240Z,8.70
2022-12-26T21:42:12.037Z,9.23
2022-12-26T21:44:38.694Z,5.27
2022-12-26T21:47:07.979Z,8.40
2022-12-26T21:49:35.100Z,13.17
2022-12-26T21:52:01.701Z,15.67
2022-12-26T21:54:49.376Z,6.20
2022-12-26T21:57:17.125Z,10.80
2022-12-26T21:59:57.074Z,10.67
2022-12-26T22:03:02.688Z,5.30
2022-12-26T22:05:34.309Z,6.93
2022-12-26T22:08:01.666Z,5.73
2022-12-26T22:10:50.849Z,6.97
2022-12-26T22:13:18.641Z,5.70
2022-12-26T22:16:05.667Z,7.00
2022-12-26T22:18:58.485Z,9.63
2022-12-26T22:21:25.417Z,5.20
2022-12-26T22:23:52.656Z,19.57
2022-12-26T22:26:21.945Z,10.47
2022-12-26T22:28:49.646Z,21.93
2022-12-26T22:31:20.048Z,11.63
2022-12-26T22:33:47.737Z,7.07
2022-12-26T22:36:14.406Z,12.93
2022-12-26T22:38:41.046Z,8.50
2022-12-26T22:41:07.933Z,21.50
2022-12-26T22:43:35.394Z,6.23
2022-12-26T22:46:02.158Z,16.00
2022-12-26T22:48:28.809Z,6.60
2022-12-26T22:50:55.740Z,6.57
2022-12-26T22:53:24.594Z,5.30
2022-12-26T22:55:57.656Z,11.80
2022-12-26T22:58:25.981Z,10.40
2022-12-26T23:00:52.493Z,8.70
2022-12-26T23:03:19.998Z,24.17
2022-12-26T23:05:47.572Z,4.77
2022-12-26T23:08:18.756Z,7.00
2022-12-26T23:10:46.655Z,13.30
2022-12-26T23:13:15.028Z,6.90
2022-12-26T23:16:04.801Z,10.40
2022-12-26T23:19:14.152Z,7.40
2022-12-26T23:21:44.146Z,5.80
2022-12-26T23:24:18.650Z,3.80
2022-12-26T23:27:17.621Z,6.73
2022-12-26T23:30:02.971Z,9.23
2022-12-26T23:32:30.377Z,4.47
2022-12-26T23:34:56.909Z,4.20
2022-12-26T23:37:23.502Z,6.90
2022-12-26T23:39:50.146Z,17.27
2022-12-26T23:42:16.690Z,6.03
2022-12-26T23:44:43.216Z,7.37
2022-12-26T23:47:10.546Z,6.13
2022-12-26T23:49:37.045Z,7.93
2022-12-26T23:52:03.675Z,6.50
2022-12-26T23:54:30.524Z,5.63
2022-12-26T23:56:57.590Z,9.80
2022-12-26T23:59:25.016Z,7.37
